Time;durP1;ratioP1;P1;durP2;ratioP2;P2;SDS_P1;SDS_P2;PMS_P1;PMS_P2;Temp;Humidity;BMP_temperature;BMP_pressure;BME280_temperature;BME280_humidity;BME280_pressure;Samples;Min_cycle;Max_cycle;Signal;HPM_P1;HPM_P2
2023/03/16 00:02:03;;;;;;;7.25;4.75;;;7.10;99.90;;;;;;5024153;28;20046;-52
2023/03/16 00:04:29;;;;;;;7.60;4.45;;;7.00;99.90;;;;;;5008635;28;20034;-52
2023/03/16 00:06:55;;;;;;;6.63;4.32;;;7.00;99.90;;;;;;5019771;28;20509;-50
2023/03/16 00:09:21;;;;;;;7.40;4.32;;;7.00;99.90;;;;;;5029753;28;20037;-53
2023/03/16 00:11:47;;;;;;;6.40;4.28;;;;;;;;;;5027309;28;20040;-52
2023/03/16 00:14:13;;;;;;;5.88;4.38;;;6.80;99.90;;;;;;5024718;28;20132;-52
2023/03/16 00:16:38;;;;;;;8.07;4.50;;;7.00;99.90;;;;;;5033688;28;20045;-52
2023/03/16 00:19:05;;;;;;;7.35;4.53;;;;;;;;;;5031462;28;20064;-52
2023/03/16 00:21:31;;;;;;;7.28;4.60;;;;;;;;;;5023415;28;20108;-53
2023/03/16 00:24:02;;;;;;;7.40;4.78;;;7.10;99.90;;;;;;5029382;28;20096;-52
2023/03/16 00:26:28;;;;;;;7.53;4.55;;;;;;;;;;5032524;28;20034;-51
2023/03/16 00:28:53;;;;;;;6.47;4.13;;;7.10;99.90;;;;;;5030614;28;20033;-52
2023/03/16 00:31:19;;;;;;;6.50;4.68;;;7.10;99.90;;;;;;5032206;28;20092;-50
2023/03/16 00:33:45;;;;;;;6.18;4.50;;;7.10;99.90;;;;;;5029934;28;20030;-51
2023/03/16 00:36:11;;;;;;;7.10;4.50;;;;;;;;;;5031711;28;20116;-51
2023/03/16 00:38:44;;;;;;;6.32;4.28;;;;;;;;;;5030428;28;20112;-51
2023/03/16 00:41:13;;;;;;;5.63;4.82;;;;;;;;;;5032872;28;20026;-51
2023/03/16 00:43:39;;;;;;;7.88;4.68;;;7.60;99.90;;;;;;5035726;28;20035;-52
2023/03/16 00:46:06;;;;;;;8.70;5.07;;;;;;;;;;5025757;28;20029;-51
2023/03/16 00:48:35;;;;;;;7.32;4.95;;;7.40;99.90;;;;;;5033273;28;20370;-51
2023/03/16 00:51:05;;;;;;;7.13;4.97;;;7.40;99.90;;;;;;5030209;28;20022;-51
2023/03/16 00:53:32;;;;;;;7.43;5.18;;;7.50;99.90;;;;;;5028445;28;20405;-51
2023/03/16 00:55:58;;;;;;;7.13;5.03;;;7.50;99.90;;;;;;5029029;28;20044;-51
2023/03/16 00:58:24;;;;;;;7.20;5.03;;;7.50;99.90;;;;;;5028831;28;20033;-51
2023/03/16 01:00:52;;;;;;;6.07;5.05;;;7.50;99.90;;;;;;5025976;28;20062;-51
2023/03/16 01:03:17;;;;;;;8.82;5.38;;;7.60;99.90;;;;;;5031483;28;20529;-51
2023/03/16 01:05:44;;;;;;;7.20;4.60;;;7.60;99.90;;;;;;5026508;28;20124;-51
2023/03/16 01:08:10;;;;;;;6.40;4.55;;;;;;;;;;5030716;28;20155;-51
2023/03/16 01:10:36;;;;;;;8.43;5.20;;;7.70;99.90;;;;;;5033074;28;20018;-51
2023/03/16 01:13:02;;;;;;;7.28;5.07;;;7.70;99.90;;;;;;5029836;28;20026;-51
2023/03/16 01:15:33;;;;;;;8.45;5.57;;;7.70;99.90;;;;;;5031827;28;20041;-51
2023/03/16 01:18:00;;;;;;;5.78;4.22;;;7.70;99.90;;;;;;5035094;28;20033;-51
2023/03/16 01:20:26;;;;;;;8.27;5.90;;;7.60;99.90;;;;;;5030104;28;20044;-51
2023/03/16 01:22:51;;;;;;;14.75;10.27;;;7.50;99.90;;;;;;5030409;28;20144;-52
2023/03/16 01:25:18;;;;;;;10.85;8.00;;;7.40;99.90;;;;;;5032893;28;20393;-51
2023/03/16 01:27:44;;;;;;;8.27;5.60;;;7.40;99.90;;;;;;5028051;28;20035;-51
2023/03/16 01:30:11;;;;;;;8.00;5.53;;;7.30;99.90;;;;;;5046595;28;20042;-51
2023/03/16 01:32:38;;;;;;;6.38;4.88;;;7.40;99.90;;;;;;5024013;28;20481;-51
2023/03/16 01:35:06;;;;;;;6.43;4.65;;;7.50;99.90;;;;;;5031083;28;20045;-51
2023/03/16 01:37:31;;;;;;;5.57;4.40;;;7.50;99.90;;;;;;5044295;28;20489;-51
2023/03/16 01:39:57;;;;;;;8.30;4.88;;;7.50;99.90;;;;;;5027396;28;20060;-51
2023/03/16 01:42:23;;;;;;;5.93;4.15;;;7.40;99.90;;;;;;5028606;28;20034;-51
2023/03/16 01:44:54;;;;;;;6.80;4.95;;;7.30;99.90;;;;;;5029375;28;20029;-52
2023/03/16 01:47:21;;;;;;;7.78;5.00;;;7.30;99.90;;;;;;5028572;28;20026;-51
2023/03/16 01:49:47;;;;;;;6.97;4.57;;;7.30;99.90;;;;;;5032467;28;20025;-51
2023/03/16 01:52:22;;;;;;;8.52;5.60;;;7.30;99.90;;;;;;5049501;28;20554;-52
2023/03/16 01:54:55;;;;;;;6.93;5.25;;;7.40;99.90;;;;;;5019307;28;20038;-53
2023/03/16 01:57:23;;;;;;;8.45;5.30;;;;;;;;;;5030603;28;20461;-52
2023/03/16 01:59:49;;;;;;;9.25;5.30;;;;;;;;;;5013894;28;20034;-53
2023/03/16 02:02:18;;;;;;;6.85;5.43;;;;;;;;;;5027795;28;20480;-51
2023/03/16 02:04:49;;;;;;;9.25;5.85;;;;;;;;;;5027145;28;20033;-51
2023/03/16 02:07:17;;;;;;;9.15;5.97;;;;;;;;;;5019114;28;20075;-53
2023/03/16 02:09:47;;;;;;;8.55;5.75;;;;;;;;;;5032272;28;20112;-51
2023/03/16 02:12:17;;;;;;;8.50;5.45;;;;;;;;;;5024581;28;20037;-51
2023/03/16 02:14:46;;;;;;;8.27;5.95;;;;;;;;;;5021816;28;20053;-51
2023/03/16 02:17:17;;;;;;;8.75;6.05;;;;;;;;;;5021157;28;20037;-51
2023/03/16 02:20:06;;;;;;;9.02;6.05;;;;;;;;;;5025048;28;20114;-51
2023/03/16 02:22:34;;;;;;;9.13;5.38;;;;;;;;;;5028723;28;20060;-51
2023/03/16 02:25:00;;;;;;;9.63;6.20;;;;;;;;;;5022421;28;20046;-52
2023/03/16 02:27:34;;;;;;;9.70;6.07;;;;;;;;;;5033540;28;20091;-51
2023/03/16 02:30:08;;;;;;;9.70;6.32;;;;;;;;;;5017633;28;20026;-51
2023/03/16 02:32:35;;;;;;;9.60;6.43;;;;;;;;;;5020191;28;20048;-52
2023/03/16 02:35:02;;;;;;;10.90;6.40;;;;;;;;;;5030444;28;20036;-52
2023/03/16 02:37:28;;;;;;;8.95;6.72;;;;;;;;;;5028306;28;20038;-52
2023/03/16 02:39:54;;;;;;;11.00;6.70;;;;;;;;;;5029791;28;20029;-52
2023/03/16 02:42:22;;;;;;;9.43;6.68;;;;;;;;;;5024259;28;20104;-51
2023/03/16 02:44:51;;;;;;;9.57;6.43;;;;;;;;;;5032484;28;20022;-51
2023/03/16 02:47:36;;;;;;;8.55;6.22;;;;;;;;;;5026242;28;20029;-52
2023/03/16 02:50:05;;;;;;;11.40;7.10;;;;;;;;;;5021795;28;20033;-51
2023/03/16 02:52:32;;;;;;;9.57;6.40;;;;;;;;;;5027862;28;20040;-51
2023/03/16 02:54:58;;;;;;;9.00;6.50;;;;;;;;;;5023867;28;20037;-51
2023/03/16 02:57:24;;;;;;;12.35;6.65;;;;;;;;;;5024687;28;20041;-51
2023/03/16 02:59:50;;;;;;;12.52;7.07;;;;;;;;;;5026930;28;20026;-52
2023/03/16 03:02:16;;;;;;;11.10;7.13;;;6.80;99.90;;;;;;5029537;28;20030;-51
2023/03/16 03:04:45;;;;;;;12.27;7.53;;;6.80;99.90;;;;;;5048184;28;20045;-51
2023/03/16 03:07:13;;;;;;;10.30;6.95;;;6.70;99.90;;;;;;5036604;28;20041;-51
2023/03/16 03:09:41;;;;;;;13.57;7.15;;;6.70;99.90;;;;;;5030093;28;20037;-52
2023/03/16 03:12:10;;;;;;;9.02;6.50;;;6.60;99.90;;;;;;5025943;28;20373;-52
2023/03/16 03:14:39;;;;;;;17.70;7.43;;;6.70;99.90;;;;;;5021924;28;20021;-51
2023/03/16 03:17:07;;;;;;;13.18;7.15;;;6.60;99.90;;;;;;5025979;28;20038;-51
2023/03/16 03:19:33;;;;;;;12.35;6.50;;;;;;;;;;5027395;28;20029;-51
2023/03/16 03:22:03;;;;;;;9.50;7.00;;;;;;;;;;5029237;28;20139;-51
2023/03/16 03:24:29;;;;;;;9.88;7.28;;;;;;;;;;5031084;28;20025;-51
2023/03/16 03:26:55;;;;;;;9.90;7.07;;;;;;;;;;5030338;28;20029;-51
2023/03/16 03:29:21;;;;;;;12.20;6.38;;;;;;;;;;5029221;28;20018;-51
2023/03/16 03:31:47;;;;;;;11.10;7.10;;;;;;;;;;5027646;28;20054;-51
2023/03/16 03:34:13;;;;;;;12.88;6.50;;;;;;;;;;5030761;28;20028;-51
2023/03/16 03:36:40;;;;;;;9.23;6.43;;;;;;;;;;5025339;28;20034;-52
2023/03/16 03:39:06;;;;;;;10.90;6.32;;;6.50;99.90;;;;;;5025493;28;20470;-51
2023/03/16 03:41:33;;;;;;;8.00;6.80;;;6.60;99.90;;;;;;5042744;28;20038;-51
2023/03/16 03:43:59;;;;;;;9.93;6.90;;;;;;;;;;5027331;28;20026;-53
2023/03/16 03:46:26;;;;;;;10.48;6.43;;;;;;;;;;5026332;28;20025;-51
2023/03/16 03:48:52;;;;;;;8.38;6.15;;;;;;;;;;5026270;28;20112;-52
2023/03/16 03:51:18;;;;;;;11.27;5.93;;;;;;;;;;5028922;28;20018;-51
2023/03/16 03:53:44;;;;;;;11.75;7.07;;;;;;;;;;5046500;28;20045;-53
2023/03/16 03:56:10;;;;;;;11.15;7.93;;;;;;;;;;5029862;28;20037;-51
2023/03/16 03:58:36;;;;;;;8.68;7.07;;;;;;;;;;5025675;28;20028;-51
2023/03/16 04:01:02;;;;;;;10.70;6.90;;;;;;;;;;5046934;28;20049;-51
2023/03/16 04:03:29;;;;;;;12.60;6.43;;;;;;;;;;5027123;28;20033;-51
2023/03/16 04:05:55;;;;;;;9.93;5.70;;;;;;;;;;5025885;28;20381;-51
2023/03/16 04:08:21;;;;;;;14.05;6.78;;;;;;;;;;5026162;28;20026;-52
2023/03/16 04:10:48;;;;;;;10.38;5.65;;;;;;;;;;5027922;28;20033;-51
2023/03/16 04:13:14;;;;;;;8.73;5.95;;;;;;;;;;5029372;28;20036;-51
2023/03/16 04:15:40;;;;;;;8.73;5.75;;;;;;;;;;5038359;28;20099;-51
2023/03/16 04:18:06;;;;;;;9.32;5.38;;;;;;;;;;5026699;28;20029;-52
2023/03/16 04:20:32;;;;;;;9.77;5.28;;;;;;;;;;5026610;28;20038;-51
2023/03/16 04:22:59;;;;;;;8.07;5.28;;;;;;;;;;5029633;28;20044;-51
2023/03/16 04:25:26;;;;;;;11.65;5.85;;;;;;;;;;5020830;28;20079;-51
2023/03/16 04:27:52;;;;;;;7.18;5.78;;;;;;;;;;5023700;28;20079;-51
2023/03/16 04:30:18;;;;;;;8.75;5.22;;;;;;;;;;5027032;28;20030;-52
2023/03/16 04:32:44;;;;;;;14.60;5.80;;;;;;;;;;5031840;28;20029;-51
2023/03/16 04:35:10;;;;;;;7.85;4.78;;;;;;;;;;5026394;28;20113;-51
2023/03/16 04:37:37;;;;;;;7.32;4.72;;;;;;;;;;5025296;28;20018;-51
2023/03/16 04:40:10;;;;;;;8.77;5.07;;;;;;;;;;5026408;28;20040;-52
2023/03/16 04:42:36;;;;;;;7.50;4.78;;;;;;;;;;5030306;28;20405;-51
2023/03/16 04:45:03;;;;;;;7.10;5.03;;;;;;;;;;5029693;28;20104;-52
2023/03/16 04:47:29;;;;;;;7.78;4.93;;;;;;;;;;5028395;28;20037;-51
2023/03/16 04:49:55;;;;;;;7.75;4.88;;;;;;;;;;5026957;28;20408;-51
2023/03/16 04:52:21;;;;;;;7.22;4.53;;;;;;;;;;5028578;28;20497;-52
2023/03/16 04:54:47;;;;;;;8.68;4.85;;;;;;;;;;5024834;28;20026;-51
2023/03/16 04:57:13;;;;;;;13.90;5.97;;;6.40;99.90;;;;;;5029994;28;20029;-51
2023/03/16 04:59:40;;;;;;;8.15;4.50;;;;;;;;;;5022841;28;20124;-51
2023/03/16 05:02:06;;;;;;;8.02;5.32;;;;;;;;;;5030448;28;20026;-51
2023/03/16 05:04:33;;;;;;;7.18;4.38;;;;;;;;;;5029567;28;20033;-51
2023/03/16 05:06:59;;;;;;;6.43;4.15;;;6.00;99.90;;;;;;5023743;28;20096;-52
2023/03/16 05:09:25;;;;;;;7.25;4.45;;;6.00;99.90;;;;;;5034667;28;20069;-52
2023/03/16 05:11:50;;;;;;;8.10;4.93;;;5.90;99.90;;;;;;5031469;28;20025;-51
2023/03/16 05:14:16;;;;;;;7.65;4.90;;;5.80;99.90;;;;;;5050286;28;20037;-51
2023/03/16 05:16:42;;;;;;;8.23;4.72;;;5.80;99.90;;;;;;5033489;28;20485;-51
2023/03/16 05:19:07;;;;;;;8.13;4.13;;;5.80;99.90;;;;;;5031392;28;20026;-51
2023/03/16 05:21:36;;;;;;;12.52;4.40;;;5.80;99.90;;;;;;5026348;28;20073;-52
2023/03/16 05:24:03;;;;;;;8.10;4.22;;;5.80;99.90;;;;;;5024138;28;20030;-51
2023/03/16 05:26:29;;;;;;;10.05;4.43;;;5.80;99.90;;;;;;5028383;28;20174;-51
2023/03/16 05:28:55;;;;;;;7.13;4.13;;;5.90;99.90;;;;;;5020813;28;20026;-51
2023/03/16 05:31:21;;;;;;;7.50;4.40;;;5.80;99.90;;;;;;5033604;28;20017;-51
2023/03/16 05:33:47;;;;;;;8.77;4.20;;;;;;;;;;5029674;28;20036;-51
2023/03/16 05:36:13;;;;;;;10.45;5.10;;;;;;;;;;5027241;28;20398;-51
2023/03/16 05:38:39;;;;;;;7.70;4.80;;;;;;;;;;5049473;28;20040;-52
2023/03/16 05:41:05;;;;;;;8.18;4.70;;;;;;;;;;5049544;28;20037;-51
2023/03/16 05:43:31;;;;;;;7.93;4.80;;;;;;;;;;5049491;28;20037;-51
2023/03/16 05:45:57;;;;;;;10.18;4.68;;;;;;;;;;5028558;28;20100;-51
2023/03/16 05:48:26;;;;;;;6.75;4.57;;;;;;;;;;5032273;28;20129;-51
2023/03/16 05:50:53;;;;;;;7.97;5.32;;;;;;;;;;5032786;28;20087;-52
2023/03/16 05:53:19;;;;;;;13.80;6.65;;;5.80;99.90;;;;;;5027264;28;20474;-51
2023/03/16 05:55:51;;;;;;;10.70;6.57;;;6.00;99.90;;;;;;5048827;28;20037;-52
2023/03/16 05:58:17;;;;;;;9.32;4.75;;;6.00;99.90;;;;;;5025766;28;20033;-51
2023/03/16 06:00:43;;;;;;;7.05;4.60;;;6.00;99.90;;;;;;5041410;28;20038;-51
2023/03/16 06:03:08;;;;;;;10.35;4.50;;;6.00;99.90;;;;;;5032698;28;20040;-51
2023/03/16 06:05:34;;;;;;;7.38;4.05;;;6.00;99.90;;;;;;5028561;28;20029;-52
2023/03/16 06:08:01;;;;;;;4.90;3.70;;;5.90;99.90;;;;;;5028796;28;20069;-51
2023/03/16 06:10:27;;;;;;;6.53;4.20;;;5.90;99.90;;;;;;5047430;28;20033;-51
2023/03/16 06:12:52;;;;;;;6.60;4.20;;;5.90;99.90;;;;;;5025014;28;20097;-52
2023/03/16 06:15:18;;;;;;;8.27;4.15;;;5.90;99.90;;;;;;5032786;28;20030;-52
2023/03/16 06:17:44;;;;;;;7.70;3.63;;;5.90;99.90;;;;;;5023942;28;20436;-51
2023/03/16 06:20:12;;;;;;;7.70;4.05;;;5.80;99.90;;;;;;5033212;28;20104;-51
2023/03/16 06:22:40;;;;;;;8.57;4.22;;;5.80;99.90;;;;;;5025407;28;20054;-51
2023/03/16 06:25:07;;;;;;;6.43;4.22;;;6.00;99.90;;;;;;5021219;28;20105;-52
2023/03/16 06:27:33;;;;;;;6.78;4.90;;;6.10;99.90;;;;;;5025300;28;20038;-51
2023/03/16 06:29:58;;;;;;;5.13;3.78;;;6.30;99.90;;;;;;5026808;28;20034;-51
2023/03/16 06:32:24;;;;;;;6.95;4.25;;;6.50;99.90;;;;;;5042174;28;20048;-52
2023/03/16 06:34:50;;;;;;;6.57;4.30;;;6.60;99.90;;;;;;5025934;28;20501;-51
2023/03/16 06:37:16;;;;;;;9.68;4.22;;;6.70;99.90;;;;;;5030381;28;20069;-51
2023/03/16 06:39:43;;;;;;;10.80;3.80;;;6.80;99.90;;;;;;5026553;28;20084;-51
2023/03/16 06:42:09;;;;;;;9.55;4.78;;;6.90;99.90;;;;;;5027910;28;20116;-51
2023/03/16 06:44:36;;;;;;;10.20;5.72;;;6.80;99.90;;;;;;5031605;28;20067;-51
2023/03/16 06:47:02;;;;;;;11.68;6.00;;;6.90;99.90;;;;;;5033726;28;20026;-52
2023/03/16 06:49:28;;;;;;;11.00;4.65;;;7.10;99.90;;;;;;5026522;28;20017;-51
2023/03/16 06:51:55;;;;;;;14.45;5.32;;;7.00;99.90;;;;;;5027253;28;20057;-51
2023/03/16 06:54:21;;;;;;;9.98;5.57;;;7.00;99.90;;;;;;5032278;28;20394;-53
2023/03/16 06:56:46;;;;;;;10.68;5.82;;;7.00;99.90;;;;;;5032392;28;20045;-51
2023/03/16 06:59:12;;;;;;;11.25;5.47;;;7.10;99.90;;;;;;5027551;28;20099;-50
2023/03/16 07:01:38;;;;;;;9.70;5.57;;;7.20;99.90;;;;;;5020634;28;20415;-56
2023/03/16 07:04:03;;;;;;;11.35;5.80;;;7.30;99.90;;;;;;5025102;28;20479;-52
2023/03/16 07:06:30;;;;;;;8.65;5.22;;;7.40;99.90;;;;;;5007579;28;20037;-48
2023/03/16 07:08:55;;;;;;;11.60;6.15;;;7.50;99.90;;;;;;5028332;28;20496;-53
2023/03/16 07:11:22;;;;;;;7.80;4.03;;;8.10;99.90;;;;;;5029921;28;20038;-52
2023/03/16 07:13:48;;;;;;;7.05;4.07;;;8.00;99.90;;;;;;5028754;28;20547;-49
2023/03/16 07:16:14;;;;;;;6.78;3.80;;;;;;;;;;5026001;28;20080;-48
2023/03/16 07:18:43;;;;;;;6.90;3.60;;;;;;;;;;5031860;28;20030;-49
2023/03/16 07:21:09;;;;;;;4.30;2.75;;;8.80;99.90;;;;;;5026202;28;20030;-48
2023/03/16 07:23:35;;;;;;;7.72;4.18;;;8.30;99.90;;;;;;5007458;28;20211;-49
2023/03/16 07:26:01;;;;;;;8.30;4.50;;;8.10;99.90;;;;;;5026609;28;20475;-49
2023/03/16 07:28:26;;;;;;;8.27;3.72;;;8.00;99.90;;;;;;5027346;28;20026;-50
2023/03/16 07:30:52;;;;;;;8.35;4.10;;;7.80;99.90;;;;;;5029226;28;20085;-50
2023/03/16 07:33:19;;;;;;;7.82;3.88;;;7.90;99.90;;;;;;5018042;28;20025;-57
2023/03/16 07:35:45;;;;;;;9.32;4.43;;;7.90;99.90;;;;;;5026542;28;20468;-50
2023/03/16 07:38:11;;;;;;;5.93;3.47;;;7.70;99.90;;;;;;5029834;28;20061;-50
2023/03/16 07:40:39;;;;;;;8.23;3.15;;;7.80;99.90;;;;;;5022511;28;20385;-50
2023/03/16 07:43:05;;;;;;;6.63;3.75;;;7.80;99.90;;;;;;5024071;28;20084;-50
2023/03/16 07:45:30;;;;;;;5.18;3.28;;;7.80;99.90;;;;;;5026854;28;20409;-50
2023/03/16 07:47:56;;;;;;;5.97;3.92;;;7.80;99.90;;;;;;5027042;28;20485;-50
2023/03/16 07:50:22;;;;;;;8.73;4.22;;;7.80;99.90;;;;;;5027685;28;20116;-50
2023/03/16 07:52:48;;;;;;;6.93;3.50;;;8.10;99.90;;;;;;5027051;28;20026;-50
2023/03/16 07:55:14;;;;;;;8.65;3.58;;;8.50;99.90;;;;;;5023448;28;20043;-52
2023/03/16 07:57:41;;;;;;;5.20;3.30;;;8.50;99.90;;;;;;5021342;28;20030;-51
2023/03/16 08:00:09;;;;;;;10.07;4.53;;;8.50;99.90;;;;;;5025430;28;20022;-52
2023/03/16 08:02:35;;;;;;;9.45;4.20;;;;;;;;;;5004164;28;20052;-51
2023/03/16 08:05:00;;;;;;;5.15;3.55;;;9.00;99.90;;;;;;5027773;28;20051;-52
2023/03/16 08:07:26;;;;;;;9.73;3.70;;;9.10;99.90;;;;;;5025941;28;20389;-51
2023/03/16 08:09:52;;;;;;;8.13;4.38;;;9.00;99.90;;;;;;5029282;28;20099;-49
2023/03/16 08:12:18;;;;;;;12.13;4.60;;;;;;;;;;5031504;28;20036;-49
2023/03/16 08:14:45;;;;;;;8.05;3.55;;;;;;;;;;5046259;28;20033;-49
2023/03/16 08:17:11;;;;;;;11.13;5.05;;;;;;;;;;5023350;28;20363;-50
2023/03/16 08:19:37;;;;;;;7.35;3.78;;;;;;;;;;5030576;28;20049;-49
2023/03/16 08:22:04;;;;;;;10.15;4.28;;;;;;;;;;5028302;28;20061;-49
2023/03/16 08:24:31;;;;;;;11.90;4.45;;;11.30;99.90;;;;;;5024317;28;20109;-49
2023/03/16 08:26:58;;;;;;;8.32;4.43;;;11.30;99.90;;;;;;5028097;28;20022;-51
2023/03/16 08:29:25;;;;;;;7.60;4.07;;;;;;;;;;5029126;28;20026;-50
2023/03/16 08:31:55;;;;;;;8.93;4.05;;;;;;;;;;5040161;28;20041;-50
2023/03/16 08:34:21;;;;;;;8.50;3.95;;;;;;;;;;5028989;28;20037;-49
2023/03/16 08:36:47;;;;;;;8.15;4.65;;;;;;;;;;5024849;28;20033;-49
2023/03/16 08:39:14;;;;;;;8.27;4.30;;;12.30;99.90;;;;;;5025639;28;20116;-52
2023/03/16 08:41:41;;;;;;;6.95;3.70;;;12.40;99.90;;;;;;5022650;28;20029;-49
2023/03/16 08:44:08;;;;;;;12.68;4.30;;;11.70;99.40;;;;;;5028591;28;20018;-50
2023/03/16 08:46:34;;;;;;;7.00;3.65;;;12.00;99.90;;;;;;5029851;28;20022;-49
2023/03/16 08:49:01;;;;;;;7.25;2.88;;;11.90;98.80;;;;;;5028659;28;20446;-49
2023/03/16 08:51:28;;;;;;;6.97;3.08;;;11.80;97.70;;;;;;5030082;28;20034;-50
2023/03/16 08:53:54;;;;;;;10.57;4.20;;;11.90;98.00;;;;;;5015903;28;20508;-49
2023/03/16 08:56:20;;;;;;;8.60;4.05;;;11.90;97.50;;;;;;5023566;28;20034;-49
2023/03/16 08:58:46;;;;;;;7.82;4.07;;;12.50;97.20;;;;;;5049601;28;20109;-51
2023/03/16 09:01:14;;;;;;;8.25;3.60;;;;;;;;;;5033150;28;20125;-50
2023/03/16 09:03:40;;;;;;;7.00;3.25;;;13.70;99.90;;;;;;5029816;28;20389;-51
2023/03/16 09:06:12;;;;;;;7.93;4.20;;;12.60;95.70;;;;;;5020677;28;20136;-50
2023/03/16 09:08:38;;;;;;;9.57;4.90;;;13.00;97.60;;;;;;5029617;28;20022;-50
2023/03/16 09:11:10;;;;;;;10.13;5.18;;;13.10;95.90;;;;;;5032865;28;20116;-50
2023/03/16 09:13:39;;;;;;;6.97;3.75;;;13.80;95.80;;;;;;5026717;28;20021;-50
2023/03/16 09:16:06;;;;;;;7.80;4.85;;;;;;;;;;5029157;28;20098;-51
2023/03/16 09:18:34;;;;;;;8.63;5.47;;;;;;;;;;5028283;28;20034;-50
2023/03/16 09:21:05;;;;;;;9.70;5.68;;;14.00;99.90;;;;;;5033569;28;20040;-50
2023/03/16 09:23:33;;;;;;;13.83;4.70;;;;;;;;;;5064327;28;20049;-50
2023/03/16 09:26:04;;;;;;;12.60;4.50;;;12.80;99.90;;;;;;5028033;28;20026;-50
2023/03/16 09:28:30;;;;;;;7.78;3.88;;;12.40;95.10;;;;;;5033721;28;20551;-50
2023/03/16 09:31:01;;;;;;;8.63;5.00;;;12.30;94.80;;;;;;5034659;28;20497;-49
2023/03/16 09:33:28;;;;;;;6.40;3.88;;;12.30;95.80;;;;;;5029606;28;20038;-50
2023/03/16 09:35:56;;;;;;;6.40;3.78;;;12.20;95.00;;;;;;5031745;28;20086;-49
2023/03/16 09:38:25;;;;;;;8.02;3.70;;;12.30;95.20;;;;;;5027122;28;20789;-50
2023/03/16 09:40:57;;;;;;;17.98;7.55;;;11.50;96.20;;;;;;5029380;28;20056;-50
2023/03/16 09:43:59;;;;;;;9.10;5.07;;;11.60;96.80;;;;;;5027606;28;20117;-49
2023/03/16 09:46:25;;;;;;;13.00;6.30;;;;;;;;;;5024987;28;20029;-50
2023/03/16 09:48:53;;;;;;;8.20;5.18;;;;;;;;;;5027767;28;20397;-49
2023/03/16 09:51:24;;;;;;;6.75;4.18;;;13.40;95.20;;;;;;5028299;28;20029;-50
2023/03/16 09:53:55;;;;;;;12.60;6.35;;;;;;;;;;5029752;28;20477;-50
2023/03/16 09:56:39;;;;;;;12.77;7.25;;;14.50;99.90;;;;;;5025385;28;20076;-51
2023/03/16 09:59:12;;;;;;;6.20;3.47;;;13.80;94.80;;;;;;5028678;28;20026;-50
2023/03/16 10:01:52;;;;;;;6.88;3.67;;;13.10;94.20;;;;;;5025735;28;20521;-52
2023/03/16 10:04:56;;;;;;;9.50;4.47;;;12.40;93.70;;;;;;5045974;28;20113;-51
2023/03/16 10:07:58;;;;;;;8.25;4.53;;;;;;;;;;5020122;28;20156;-51
2023/03/16 10:10:42;;;;;;;12.35;6.60;;;;;;;;;;5031827;28;20022;-50
2023/03/16 10:13:30;;;;;;;14.05;8.18;;;13.20;99.90;;;;;;5030923;28;20065;-51
2023/03/16 10:15:58;;;;;;;11.43;6.60;;;13.40;94.10;;;;;;5031665;28;20076;-51
2023/03/16 10:18:31;;;;;;;11.15;6.10;;;13.20;94.50;;;;;;5031721;28;20040;-51
2023/03/16 10:20:57;;;;;;;9.93;4.20;;;;;;;;;;5025562;28;20030;-51
2023/03/16 10:23:25;;;;;;;9.75;4.88;;;14.10;99.90;;;;;;4998343;28;20612;-50
2023/03/16 10:25:54;;;;;;;7.15;5.20;;;13.60;92.10;;;;;;4997170;28;20075;-51
2023/03/16 10:28:22;;;;;;;7.95;4.20;;;13.90;92.40;;;;;;5031391;28;20025;-50
2023/03/16 10:30:51;;;;;;;7.32;3.83;;;13.30;92.60;;;;;;5030901;28;20109;-51
2023/03/16 10:33:23;;;;;;;6.40;3.40;;;13.20;92.70;;;;;;5031528;28;20022;-50
2023/03/16 10:36:14;;;;;;;6.80;3.58;;;12.70;92.50;;;;;;5031315;28;20065;-51
2023/03/16 10:38:48;;;;;;;10.95;4.75;;;12.60;93.10;;;;;;5031535;28;20037;-50
2023/03/16 10:41:24;;;;;;;8.05;3.92;;;12.30;93.70;;;;;;5030968;28;20396;-50
2023/03/16 10:44:14;;;;;;;6.55;3.40;;;11.90;92.30;;;;;;5025459;28;20378;-53
2023/03/16 10:46:47;;;;;;;6.72;3.78;;;12.30;92.20;;;;;;5024290;28;20103;-53
2023/03/16 10:49:21;;;;;;;9.93;5.50;;;;;;;;;;5028760;28;20020;-52
2023/03/16 10:51:48;;;;;;;10.27;5.88;;;;;;;;;;5022481;28;20033;-53
2023/03/16 10:54:20;;;;;;;6.75;4.15;;;15.70;92.50;;;;;;5021649;28;20021;-53
2023/03/16 10:56:49;;;;;;;9.20;4.75;;;15.40;90.50;;;;;;5030301;28;20034;-52
2023/03/16 10:59:28;;;;;;;6.28;3.13;;;15.30;91.20;;;;;;5029181;28;20025;-52
2023/03/16 11:01:55;;;;;;;4.75;2.33;;;14.00;90.10;;;;;;5021772;28;20029;-53
2023/03/16 11:04:20;;;;;;;8.52;3.40;;;13.70;90.70;;;;;;5030014;28;20021;-53
2023/03/16 11:06:55;;;;;;;6.10;3.50;;;14.00;90.90;;;;;;5026521;28;20051;-53
2023/03/16 11:09:27;;;;;;;6.60;3.50;;;;;;;;;;5023410;28;20113;-53
2023/03/16 11:11:53;;;;;;;9.40;6.43;;;14.10;97.50;;;;;;5029078;28;20022;-53
2023/03/16 11:14:27;;;;;;;4.45;3.13;;;13.80;91.10;;;;;;5029748;28;20036;-53
2023/03/16 11:17:01;;;;;;;5.93;3.70;;;12.90;90.90;;;;;;5032505;28;20037;-53
2023/03/16 11:19:33;;;;;;;7.95;2.58;;;13.40;91.90;;;;;;5026970;28;20428;-52
2023/03/16 11:22:14;;;;;;;9.52;4.95;;;12.90;91.20;;;;;;5020944;28;20067;-53
2023/03/16 11:25:16;;;;;;;8.75;4.10;;;;;;;;;;5027411;28;20049;-53
2023/03/16 11:27:42;;;;;;;8.68;2.80;;;12.20;99.90;;;;;;5013387;28;20039;-52
2023/03/16 11:30:19;;;;;;;8.13;2.75;;;12.10;91.00;;;;;;5030168;28;20037;-52
2023/03/16 11:32:52;;;;;;;5.55;2.60;;;12.50;91.00;;;;;;5030677;28;20448;-52
2023/03/16 11:35:36;;;;;;;2.83;1.90;;;12.50;90.60;;;;;;5029977;28;20148;-52
2023/03/16 11:38:15;;;;;;;4.88;3.03;;;12.10;91.10;;;;;;5030541;28;20095;-53
2023/03/16 11:41:00;;;;;;;6.70;3.33;;;11.80;91.10;;;;;;5027745;28;20433;-52
2023/03/16 11:43:45;;;;;;;8.23;4.25;;;;;;;;;;5030663;28;20408;-53
2023/03/16 11:46:25;;;;;;;8.88;5.25;;;11.30;92.30;;;;;;5030097;28;20544;-54
2023/03/16 11:49:08;;;;;;;6.38;3.55;;;11.70;92.50;;;;;;5013468;28;20072;-52
2023/03/16 11:51:40;;;;;;;7.57;3.13;;;11.50;92.20;;;;;;5011214;28;20037;-52
2023/03/16 11:54:39;;;;;;;4.88;2.75;;;11.10;91.90;;;;;;5030015;28;20067;-52
2023/03/16 11:57:26;;;;;;;5.40;2.75;;;11.20;91.70;;;;;;5029878;28;20092;-53
2023/03/16 12:00:04;;;;;;;5.90;3.80;;;10.70;91.90;;;;;;5029710;28;20075;-52
2023/03/16 12:02:52;;;;;;;11.73;5.85;;;10.80;92.60;;;;;;5023392;28;20069;-52
2023/03/16 12:05:44;;;;;;;8.18;4.75;;;10.90;93.10;;;;;;5029209;28;20100;-52
2023/03/16 12:08:16;;;;;;;9.68;6.45;;;10.90;93.10;;;;;;5032293;28;20068;-52
2023/03/16 12:10:55;;;;;;;8.57;4.80;;;11.00;93.70;;;;;;5032958;28;20026;-52
2023/03/16 12:13:34;;;;;;;7.43;4.13;;;10.80;94.10;;;;;;5034047;28;20029;-52
2023/03/16 12:16:06;;;;;;;37.03;22.27;;;10.30;91.40;;;;;;5024640;28;20026;-52
2023/03/16 12:18:38;;;;;;;21.30;12.63;;;;;;;;;;5028198;28;20060;-51
2023/03/16 12:21:08;;;;;;;;;;;9.20;94.70;;;;;;5034398;28;20048;-52
2023/03/16 12:23:49;;;;;;;11.68;7.43;;;9.70;96.40;;;;;;5029565;28;19921;-52
2023/03/16 12:26:16;;;;;;;12.07;7.68;;;10.30;95.60;;;;;;5033310;28;20037;-52
2023/03/16 12:28:42;;;;;;;15.27;8.90;;;10.50;96.80;;;;;;5027961;28;20029;-52
2023/03/16 12:31:55;;;;;;;12.30;8.63;;;10.90;96.00;;;;;;5030022;28;20064;-51
2023/03/16 12:34:49;;;;;;;8.40;5.07;;;11.20;95.50;;;;;;4939569;29;20031;-52
2023/03/16 12:37:23;;;;;;;18.38;7.85;;;11.10;94.50;;;;;;4919424;29;20036;-52
2023/03/16 12:40:23;;;;;;;12.38;6.05;;;11.50;94.70;;;;;;4939670;29;20040;-52
2023/03/16 12:43:23;;;;;;;9.63;6.00;;;11.70;94.40;;;;;;4946512;29;20063;-52
2023/03/16 12:46:08;;;;;;;8.82;5.20;;;11.40;94.70;;;;;;4905976;29;20048;-52
2023/03/16 12:48:43;;;;;;;15.18;7.55;;;10.90;94.80;;;;;;4945581;29;20031;-53
2023/03/16 12:51:09;;;;;;;14.27;7.30;;;10.90;94.60;;;;;;4940276;29;20047;-52
2023/03/16 12:53:38;;;;;;;11.77;7.70;;;11.60;95.20;;;;;;4938475;28;20031;-51
2023/03/16 12:56:08;;;;;;;9.15;5.18;;;12.20;95.60;;;;;;4936944;29;20035;-51
2023/03/16 12:58:35;;;;;;;4.93;3.05;;;12.80;94.90;;;;;;4936198;29;20106;-51
2023/03/16 13:01:06;;;;;;;13.20;6.10;;;12.80;92.70;;;;;;4938467;29;20064;-52
2023/03/16 13:03:33;;;;;;;6.20;4.10;;;13.00;92.30;;;;;;4936861;29;20055;-52
2023/03/16 13:05:59;;;;;;;4.25;2.80;;;;;;;;;;4922589;29;20480;-52
2023/03/16 13:08:27;;;;;;;13.88;6.10;;;12.50;90.40;;;;;;4933284;29;20082;-52
2023/03/16 13:11:03;;;;;;;5.95;3.35;;;12.50;90.60;;;;;;4956222;28;20138;-53
2023/03/16 13:13:29;;;;;;;9.40;3.38;;;11.90;91.60;;;;;;5006541;28;20021;-52
2023/03/16 13:16:08;;;;;;;10.50;3.92;;;11.50;91.40;;;;;;5011464;28;20057;-53
2023/03/16 13:18:48;;;;;;;6.57;3.08;;;11.80;92.50;;;;;;5010632;28;20046;-55
2023/03/16 13:21:17;;;;;;;4.25;2.92;;;12.00;92.60;;;;;;5011066;28;20034;-55
2023/03/16 13:24:19;;;;;;;6.20;4.53;;;12.00;91.50;;;;;;5012681;28;20041;-55
2023/03/16 13:26:47;;;;;;;5.70;3.10;;;12.30;91.00;;;;;;5011738;28;20046;-55
2023/03/16 13:29:24;;;;;;;5.68;2.97;;;12.50;90.70;;;;;;4996850;28;20033;-55
2023/03/16 13:31:51;;;;;;;6.97;4.13;;;12.50;89.80;;;;;;5012060;28;20037;-56
2023/03/16 13:34:25;;;;;;;6.07;4.20;;;12.30;90.70;;;;;;4973041;28;20035;-55
2023/03/16 13:36:55;;;;;;;5.57;2.42;;;12.00;90.80;;;;;;4972913;28;20042;-55
2023/03/16 13:39:23;;;;;;;5.18;2.72;;;12.00;90.80;;;;;;4973539;28;20030;-55